sensor_id;sensor_type;location;lat;lon;timestamp;P1;durP1;ratioP1;P2;durP2;ratioP2
16766;SDS011;8501;49.926;8.404;2024-01-06T00:01:31;7.47;;;4.33;;
16766;SDS011;8501;49.926;8.404;2024-01-06T00:03:56;9.07;;;4.17;;
16766;SDS011;8501;49.926;8.404;2024-01-06T00:06:22;12.53;;;4.80;;
16766;SDS011;8501;49.926;8.404;2024-01-06T00:08:48;10.50;;;4.40;;
16766;SDS011;8501;49.926;8.404;2024-01-06T00:11:19;10.03;;;4.33;;
16766;SDS011;8501;49.926;8.404;2024-01-06T00:13:45;9.07;;;4.43;;
16766;SDS011;8501;49.926;8.404;2024-01-06T00:16:11;10.03;;;5.33;;
16766;SDS011;8501;49.926;8.404;2024-01-06T00:18:36;10.23;;;5.73;;
16766;SDS011;8501;49.926;8.404;2024-01-06T00:21:02;12.77;;;6.60;;
16766;SDS011;8501;49.926;8.404;2024-01-06T00:23:28;10.37;;;6.00;;
16766;SDS011;8501;49.926;8.404;2024-01-06T00:25:54;8.97;;;4.30;;
16766;SDS011;8501;49.926;8.404;2024-01-06T00:28:19;11.13;;;4.80;;
16766;SDS011;8501;49.926;8.404;2024-01-06T00:30:45;7.97;;;4.33;;
16766;SDS011;8501;49.926;8.404;2024-01-06T00:33:10;7.60;;;4.00;;
16766;SDS011;8501;49.926;8.404;2024-01-06T00:35:37;7.67;;;3.97;;
16766;SDS011;8501;49.926;8.404;2024-01-06T00:38:02;9.77;;;4.13;;
16766;SDS011;8501;49.926;8.404;2024-01-06T00:40:28;9.07;;;4.57;;
16766;SDS011;8501;49.926;8.404;2024-01-06T00:42:54;12.30;;;5.10;;
16766;SDS011;8501;49.926;8.404;2024-01-06T00:45:19;9.90;;;5.87;;
16766;SDS011;8501;49.926;8.404;2024-01-06T00:47:45;12.53;;;6.40;;
16766;SDS011;8501;49.926;8.404;2024-01-06T00:50:10;10.50;;;5.93;;
16766;SDS011;8501;49.926;8.404;2024-01-06T00:52:37;14.03;;;6.63;;
16766;SDS011;8501;49.926;8.404;2024-01-06T00:55:02;14.00;;;7.23;;
16766;SDS011;8501;49.926;8.404;2024-01-06T00:57:28;12.60;;;6.37;;
16766;SDS011;8501;49.926;8.404;2024-01-06T00:59:54;11.07;;;4.77;;
16766;SDS011;8501;49.926;8.404;2024-01-06T01:02:19;15.60;;;6.27;;
16766;SDS011;8501;49.926;8.404;2024-01-06T01:04:45;16.00;;;7.10;;
16766;SDS011;8501;49.926;8.404;2024-01-06T01:07:11;13.50;;;5.63;;
16766;SDS011;8501;49.926;8.404;2024-01-06T01:09:37;10.13;;;4.77;;
16766;SDS011;8501;49.926;8.404;2024-01-06T01:12:03;14.30;;;5.93;;
16766;SDS011;8501;49.926;8.404;2024-01-06T01:14:28;10.03;;;5.70;;
16766;SDS011;8501;49.926;8.404;2024-01-06T01:16:54;10.87;;;5.17;;
16766;SDS011;8501;49.926;8.404;2024-01-06T01:19:19;9.83;;;4.40;;
16766;SDS011;8501;49.926;8.404;2024-01-06T01:21:45;15.47;;;5.17;;
16766;SDS011;8501;49.926;8.404;2024-01-06T01:24:10;12.67;;;5.70;;
16766;SDS011;8501;49.926;8.404;2024-01-06T01:26:36;12.83;;;5.73;;
16766;SDS011;8501;49.926;8.404;2024-01-06T01:29:01;10.70;;;4.93;;
16766;SDS011;8501;49.926;8.404;2024-01-06T01:31:27;12.30;;;5.43;;
16766;SDS011;8501;49.926;8.404;2024-01-06T01:33:52;10.90;;;4.57;;
16766;SDS011;8501;49.926;8.404;2024-01-06T01:36:18;7.10;;;4.20;;
16766;SDS011;8501;49.926;8.404;2024-01-06T01:38:43;8.73;;;4.10;;
16766;SDS011;8501;49.926;8.404;2024-01-06T01:41:09;7.97;;;4.20;;
16766;SDS011;8501;49.926;8.404;2024-01-06T01:43:34;10.03;;;4.70;;
16766;SDS011;8501;49.926;8.404;2024-01-06T01:46:00;12.43;;;5.27;;
16766;SDS011;8501;49.926;8.404;2024-01-06T01:48:27;10.10;;;4.50;;
16766;SDS011;8501;49.926;8.404;2024-01-06T01:50:53;10.93;;;5.43;;
16766;SDS011;8501;49.926;8.404;2024-01-06T01:53:19;9.53;;;4.20;;
16766;SDS011;8501;49.926;8.404;2024-01-06T01:55:45;10.83;;;4.67;;
16766;SDS011;8501;49.926;8.404;2024-01-06T01:58:12;10.43;;;4.07;;
16766;SDS011;8501;49.926;8.404;2024-01-06T02:00:38;5.87;;;3.80;;
16766;SDS011;8501;49.926;8.404;2024-01-06T02:03:04;6.80;;;3.60;;
16766;SDS011;8501;49.926;8.404;2024-01-06T02:05:30;6.63;;;3.60;;
16766;SDS011;8501;49.926;8.404;2024-01-06T02:07:56;9.30;;;3.67;;
16766;SDS011;8501;49.926;8.404;2024-01-06T02:10:21;7.37;;;3.80;;
16766;SDS011;8501;49.926;8.404;2024-01-06T02:12:48;6.80;;;3.97;;
16766;SDS011;8501;49.926;8.404;2024-01-06T02:15:14;10.27;;;5.33;;
16766;SDS011;8501;49.926;8.404;2024-01-06T02:17:39;9.43;;;4.80;;
16766;SDS011;8501;49.926;8.404;2024-01-06T02:20:06;8.40;;;4.43;;
16766;SDS011;8501;49.926;8.404;2024-01-06T02:22:33;10.70;;;5.23;;
16766;SDS011;8501;49.926;8.404;2024-01-06T02:25:00;10.97;;;4.57;;
16766;SDS011;8501;49.926;8.404;2024-01-06T02:27:27;7.30;;;3.97;;
16766;SDS011;8501;49.926;8.404;2024-01-06T02:29:52;7.93;;;4.00;;
16766;SDS011;8501;49.926;8.404;2024-01-06T02:32:18;10.03;;;4.20;;
16766;SDS011;8501;49.926;8.404;2024-01-06T02:34:43;9.03;;;4.27;;
16766;SDS011;8501;49.926;8.404;2024-01-06T02:37:09;8.83;;;4.37;;
16766;SDS011;8501;49.926;8.404;2024-01-06T02:39:37;7.87;;;4.17;;
16766;SDS011;8501;49.926;8.404;2024-01-06T02:42:03;6.63;;;3.60;;
16766;SDS011;8501;49.926;8.404;2024-01-06T02:44:28;9.07;;;3.83;;
16766;SDS011;8501;49.926;8.404;2024-01-06T02:46:54;6.17;;;3.43;;
16766;SDS011;8501;49.926;8.404;2024-01-06T02:49:19;5.67;;;2.97;;
16766;SDS011;8501;49.926;8.404;2024-01-06T02:51:45;6.63;;;2.93;;
16766;SDS011;8501;49.926;8.404;2024-01-06T02:54:10;5.63;;;3.10;;
16766;SDS011;8501;49.926;8.404;2024-01-06T02:56:36;4.97;;;3.13;;
16766;SDS011;8501;49.926;8.404;2024-01-06T02:59:03;6.17;;;3.13;;
16766;SDS011;8501;49.926;8.404;2024-01-06T03:01:28;5.90;;;3.33;;
16766;SDS011;8501;49.926;8.404;2024-01-06T03:03:54;5.93;;;3.07;;
16766;SDS011;8501;49.926;8.404;2024-01-06T03:06:19;9.47;;;3.20;;
16766;SDS011;8501;49.926;8.404;2024-01-06T03:08:45;5.57;;;2.80;;
16766;SDS011;8501;49.926;8.404;2024-01-06T03:11:10;5.83;;;3.20;;
16766;SDS011;8501;49.926;8.404;2024-01-06T03:13:36;5.37;;;2.60;;
16766;SDS011;8501;49.926;8.404;2024-01-06T03:16:04;6.97;;;2.83;;
16766;SDS011;8501;49.926;8.404;2024-01-06T03:18:30;4.73;;;2.77;;
16766;SDS011;8501;49.926;8.404;2024-01-06T03:20:56;5.37;;;2.80;;
16766;SDS011;8501;49.926;8.404;2024-01-06T03:23:21;4.10;;;3.27;;
16766;SDS011;8501;49.926;8.404;2024-01-06T03:25:47;4.43;;;2.80;;
16766;SDS011;8501;49.926;8.404;2024-01-06T03:28:12;4.77;;;2.60;;
16766;SDS011;8501;49.926;8.404;2024-01-06T03:30:38;5.40;;;2.67;;
16766;SDS011;8501;49.926;8.404;2024-01-06T03:33:04;3.83;;;2.43;;
16766;SDS011;8501;49.926;8.404;2024-01-06T03:35:30;4.90;;;2.60;;
16766;SDS011;8501;49.926;8.404;2024-01-06T03:37:56;4.47;;;2.50;;
16766;SDS011;8501;49.926;8.404;2024-01-06T03:40:21;5.80;;;2.90;;
16766;SDS011;8501;49.926;8.404;2024-01-06T03:42:47;5.27;;;2.70;;
16766;SDS011;8501;49.926;8.404;2024-01-06T03:45:12;6.97;;;3.10;;
16766;SDS011;8501;49.926;8.404;2024-01-06T03:47:38;5.20;;;2.90;;
16766;SDS011;8501;49.926;8.404;2024-01-06T03:50:04;3.90;;;2.50;;
16766;SDS011;8501;49.926;8.404;2024-01-06T03:52:30;5.23;;;2.97;;
16766;SDS011;8501;49.926;8.404;2024-01-06T03:54:55;6.60;;;2.63;;
16766;SDS011;8501;49.926;8.404;2024-01-06T03:57:21;11.63;;;2.90;;
16766;SDS011;8501;49.926;8.404;2024-01-06T03:59:46;6.50;;;3.33;;
16766;SDS011;8501;49.926;8.404;2024-01-06T04:02:12;5.27;;;3.03;;
16766;SDS011;8501;49.926;8.404;2024-01-06T04:04:37;5.53;;;3.10;;
16766;SDS011;8501;49.926;8.404;2024-01-06T04:07:03;8.30;;;3.90;;
16766;SDS011;8501;49.926;8.404;2024-01-06T04:09:28;7.00;;;3.40;;
16766;SDS011;8501;49.926;8.404;2024-01-06T04:11:54;4.67;;;3.30;;
16766;SDS011;8501;49.926;8.404;2024-01-06T04:14:19;6.17;;;3.20;;
16766;SDS011;8501;49.926;8.404;2024-01-06T04:16:45;8.83;;;3.33;;
16766;SDS011;8501;49.926;8.404;2024-01-06T04:19:10;7.67;;;3.40;;
16766;SDS011;8501;49.926;8.404;2024-01-06T04:21:37;6.23;;;3.00;;
16766;SDS011;8501;49.926;8.404;2024-01-06T04:24:03;6.13;;;3.07;;
16766;SDS011;8501;49.926;8.404;2024-01-06T04:26:29;7.83;;;3.03;;
16766;SDS011;8501;49.926;8.404;2024-01-06T04:28:54;4.33;;;3.20;;
16766;SDS011;8501;49.926;8.404;2024-01-06T04:31:20;6.43;;;3.17;;
16766;SDS011;8501;49.926;8.404;2024-01-06T04:33:45;6.83;;;3.47;;
16766;SDS011;8501;49.926;8.404;2024-01-06T04:36:11;6.13;;;3.53;;
16766;SDS011;8501;49.926;8.404;2024-01-06T04:38:36;6.47;;;3.40;;
16766;SDS011;8501;49.926;8.404;2024-01-06T04:41:02;7.63;;;4.30;;
16766;SDS011;8501;49.926;8.404;2024-01-06T04:43:27;11.03;;;4.80;;
16766;SDS011;8501;49.926;8.404;2024-01-06T04:45:54;5.53;;;3.90;;
16766;SDS011;8501;49.926;8.404;2024-01-06T04:48:20;8.00;;;4.83;;
16766;SDS011;8501;49.926;8.404;2024-01-06T04:50:45;7.03;;;3.60;;
16766;SDS011;8501;49.926;8.404;2024-01-06T04:53:11;5.80;;;3.60;;
16766;SDS011;8501;49.926;8.404;2024-01-06T04:55:36;7.43;;;3.40;;
16766;SDS011;8501;49.926;8.404;2024-01-06T04:58:02;7.57;;;3.97;;
16766;SDS011;8501;49.926;8.404;2024-01-06T05:00:27;9.93;;;3.77;;
16766;SDS011;8501;49.926;8.404;2024-01-06T05:02:53;7.53;;;3.57;;
16766;SDS011;8501;49.926;8.404;2024-01-06T05:05:18;6.53;;;3.83;;
16766;SDS011;8501;49.926;8.404;2024-01-06T05:07:44;8.23;;;4.10;;
16766;SDS011;8501;49.926;8.404;2024-01-06T05:10:09;7.00;;;3.67;;
16766;SDS011;8501;49.926;8.404;2024-01-06T05:12:35;6.50;;;4.03;;
16766;SDS011;8501;49.926;8.404;2024-01-06T05:15:00;9.37;;;4.17;;
16766;SDS011;8501;49.926;8.404;2024-01-06T05:17:26;6.33;;;3.50;;
16766;SDS011;8501;49.926;8.404;2024-01-06T05:19:51;4.83;;;3.37;;
16766;SDS011;8501;49.926;8.404;2024-01-06T05:22:17;5.40;;;3.50;;
16766;SDS011;8501;49.926;8.404;2024-01-06T05:24:42;8.90;;;4.10;;
16766;SDS011;8501;49.926;8.404;2024-01-06T05:27:08;7.13;;;3.60;;
16766;SDS011;8501;49.926;8.404;2024-01-06T05:29:33;7.87;;;4.13;;
16766;SDS011;8501;49.926;8.404;2024-01-06T05:31:59;6.73;;;3.63;;
16766;SDS011;8501;49.926;8.404;2024-01-06T05:34:24;9.00;;;3.90;;
16766;SDS011;8501;49.926;8.404;2024-01-06T05:36:50;9.30;;;3.70;;
16766;SDS011;8501;49.926;8.404;2024-01-06T05:39:16;5.93;;;3.63;;
16766;SDS011;8501;49.926;8.404;2024-01-06T05:41:42;6.60;;;4.30;;
16766;SDS011;8501;49.926;8.404;2024-01-06T05:44:07;7.00;;;3.80;;
16766;SDS011;8501;49.926;8.404;2024-01-06T05:46:33;4.93;;;3.30;;
16766;SDS011;8501;49.926;8.404;2024-01-06T05:48:59;6.93;;;3.60;;
16766;SDS011;8501;49.926;8.404;2024-01-06T05:51:25;5.97;;;3.47;;
16766;SDS011;8501;49.926;8.404;2024-01-06T05:53:50;5.87;;;3.67;;
16766;SDS011;8501;49.926;8.404;2024-01-06T05:56:25;6.93;;;3.67;;
16766;SDS011;8501;49.926;8.404;2024-01-06T05:58:51;6.57;;;3.47;;
16766;SDS011;8501;49.926;8.404;2024-01-06T06:01:18;6.73;;;3.40;;
16766;SDS011;8501;49.926;8.404;2024-01-06T06:03:44;7.37;;;4.03;;
16766;SDS011;8501;49.926;8.404;2024-01-06T06:06:11;6.57;;;3.60;;
16766;SDS011;8501;49.926;8.404;2024-01-06T06:08:36;7.30;;;3.90;;
16766;SDS011;8501;49.926;8.404;2024-01-06T06:11:02;6.40;;;3.63;;
16766;SDS011;8501;49.926;8.404;2024-01-06T06:13:30;7.40;;;3.77;;
16766;SDS011;8501;49.926;8.404;2024-01-06T06:15:55;7.03;;;3.80;;
16766;SDS011;8501;49.926;8.404;2024-01-06T06:18:21;6.13;;;3.37;;
16766;SDS011;8501;49.926;8.404;2024-01-06T06:20:47;7.20;;;3.90;;
16766;SDS011;8501;49.926;8.404;2024-01-06T06:23:12;7.00;;;3.73;;
16766;SDS011;8501;49.926;8.404;2024-01-06T06:25:38;6.63;;;4.00;;
16766;SDS011;8501;49.926;8.404;2024-01-06T06:28:04;6.03;;;3.90;;
16766;SDS011;8501;49.926;8.404;2024-01-06T06:30:29;8.03;;;4.03;;
16766;SDS011;8501;49.926;8.404;2024-01-06T06:32:55;6.87;;;4.30;;
16766;SDS011;8501;49.926;8.404;2024-01-06T06:35:21;7.77;;;4.03;;
16766;SDS011;8501;49.926;8.404;2024-01-06T06:37:48;7.83;;;4.27;;
16766;SDS011;8501;49.926;8.404;2024-01-06T06:40:14;7.27;;;4.17;;
16766;SDS011;8501;49.926;8.404;2024-01-06T06:42:39;7.40;;;4.40;;
16766;SDS011;8501;49.926;8.404;2024-01-06T06:45:05;6.20;;;4.53;;
16766;SDS011;8501;49.926;8.404;2024-01-06T06:47:31;8.17;;;4.43;;
16766;SDS011;8501;49.926;8.404;2024-01-06T06:49:56;8.70;;;4.37;;
16766;SDS011;8501;49.926;8.404;2024-01-06T06:52:22;6.30;;;3.90;;
16766;SDS011;8501;49.926;8.404;2024-01-06T06:54:47;10.47;;;4.00;;
16766;SDS011;8501;49.926;8.404;2024-01-06T06:57:14;7.80;;;4.50;;
16766;SDS011;8501;49.926;8.404;2024-01-06T06:59:40;9.97;;;4.80;;
16766;SDS011;8501;49.926;8.404;2024-01-06T07:02:05;7.73;;;4.10;;
16766;SDS011;8501;49.926;8.404;2024-01-06T07:04:31;7.30;;;4.07;;
16766;SDS011;8501;49.926;8.404;2024-01-06T07:06:56;8.77;;;4.50;;
16766;SDS011;8501;49.926;8.404;2024-01-06T07:09:22;10.07;;;5.17;;
16766;SDS011;8501;49.926;8.404;2024-01-06T07:11:50;7.43;;;4.40;;
16766;SDS011;8501;49.926;8.404;2024-01-06T07:14:16;8.73;;;4.57;;
16766;SDS011;8501;49.926;8.404;2024-01-06T07:16:42;9.67;;;4.90;;
16766;SDS011;8501;49.926;8.404;2024-01-06T07:19:07;8.63;;;4.80;;
16766;SDS011;8501;49.926;8.404;2024-01-06T07:21:33;7.77;;;5.10;;
16766;SDS011;8501;49.926;8.404;2024-01-06T07:23:58;8.80;;;4.97;;
16766;SDS011;8501;49.926;8.404;2024-01-06T07:26:26;12.77;;;6.37;;
16766;SDS011;8501;49.926;8.404;2024-01-06T07:28:51;11.13;;;6.27;;
16766;SDS011;8501;49.926;8.404;2024-01-06T07:31:17;9.83;;;6.10;;
16766;SDS011;8501;49.926;8.404;2024-01-06T07:33:42;11.23;;;6.23;;
16766;SDS011;8501;49.926;8.404;2024-01-06T07:36:08;8.80;;;5.90;;
16766;SDS011;8501;49.926;8.404;2024-01-06T07:38:33;9.50;;;5.97;;
16766;SDS011;8501;49.926;8.404;2024-01-06T07:40:59;10.23;;;6.10;;
16766;SDS011;8501;49.926;8.404;2024-01-06T07:43:24;14.43;;;6.60;;
16766;SDS011;8501;49.926;8.404;2024-01-06T07:45:50;12.30;;;6.20;;
16766;SDS011;8501;49.926;8.404;2024-01-06T07:48:16;18.40;;;11.70;;
16766;SDS011;8501;49.926;8.404;2024-01-06T07:50:41;26.63;;;15.80;;
16766;SDS011;8501;49.926;8.404;2024-01-06T07:53:07;14.27;;;8.43;;
16766;SDS011;8501;49.926;8.404;2024-01-06T07:55:32;12.30;;;6.57;;
16766;SDS011;8501;49.926;8.404;2024-01-06T07:57:58;15.10;;;6.70;;
16766;SDS011;8501;49.926;8.404;2024-01-06T08:00:23;9.83;;;6.73;;
16766;SDS011;8501;49.926;8.404;2024-01-06T08:02:49;12.93;;;6.70;;
16766;SDS011;8501;49.926;8.404;2024-01-06T08:05:14;10.03;;;6.57;;
16766;SDS011;8501;49.926;8.404;2024-01-06T08:07:40;8.80;;;5.93;;
16766;SDS011;8501;49.926;8.404;2024-01-06T08:10:05;11.87;;;5.57;;
16766;SDS011;8501;49.926;8.404;2024-01-06T08:12:33;10.20;;;5.60;;
16766;SDS011;8501;49.926;8.404;2024-01-06T08:14:59;8.83;;;5.30;;
16766;SDS011;8501;49.926;8.404;2024-01-06T08:17:25;11.67;;;5.40;;
16766;SDS011;8501;49.926;8.404;2024-01-06T08:19:50;10.63;;;6.00;;
16766;SDS011;8501;49.926;8.404;2024-01-06T08:22:16;11.67;;;6.70;;
16766;SDS011;8501;49.926;8.404;2024-01-06T08:24:41;11.77;;;6.37;;
16766;SDS011;8501;49.926;8.404;2024-01-06T08:27:07;11.83;;;5.97;;
16766;SDS011;8501;49.926;8.404;2024-01-06T08:29:32;9.83;;;6.13;;
16766;SDS011;8501;49.926;8.404;2024-01-06T08:31:58;12.10;;;7.10;;
16766;SDS011;8501;49.926;8.404;2024-01-06T08:34:24;11.77;;;5.80;;
16766;SDS011;8501;49.926;8.404;2024-01-06T08:36:49;8.43;;;6.17;;
16766;SDS011;8501;49.926;8.404;2024-01-06T08:39:15;8.73;;;5.20;;
16766;SDS011;8501;49.926;8.404;2024-01-06T08:41:41;7.87;;;5.67;;
16766;SDS011;8501;49.926;8.404;2024-01-06T08:44:07;18.43;;;8.70;;
16766;SDS011;8501;49.926;8.404;2024-01-06T08:46:32;16.00;;;6.80;;
16766;SDS011;8501;49.926;8.404;2024-01-06T08:48:58;14.67;;;7.00;;
16766;SDS011;8501;49.926;8.404;2024-01-06T08:51:25;10.30;;;5.97;;
16766;SDS011;8501;49.926;8.404;2024-01-06T08:53:51;10.40;;;6.47;;
16766;SDS011;8501;49.926;8.404;2024-01-06T08:56:17;12.23;;;6.20;;
16766;SDS011;8501;49.926;8.404;2024-01-06T08:58:42;9.03;;;6.10;;
16766;SDS011;8501;49.926;8.404;2024-01-06T09:01:08;11.40;;;6.57;;
16766;SDS011;8501;49.926;8.404;2024-01-06T09:03:34;13.03;;;7.10;;
16766;SDS011;8501;49.926;8.404;2024-01-06T09:05:59;10.47;;;7.13;;
16766;SDS011;8501;49.926;8.404;2024-01-06T09:08:25;13.20;;;6.67;;
16766;SDS011;8501;49.926;8.404;2024-01-06T09:10:50;9.27;;;6.27;;
16766;SDS011;8501;49.926;8.404;2024-01-06T09:13:17;9.83;;;6.03;;
16766;SDS011;8501;49.926;8.404;2024-01-06T09:15:43;10.17;;;6.80;;
16766;SDS011;8501;49.926;8.404;2024-01-06T09:18:08;10.60;;;5.87;;
16766;SDS011;8501;49.926;8.404;2024-01-06T09:20:34;11.23;;;6.40;;
16766;SDS011;8501;49.926;8.404;2024-01-06T09:23:00;11.50;;;6.73;;
16766;SDS011;8501;49.926;8.404;2024-01-06T09:25:25;12.60;;;7.80;;
16766;SDS011;8501;49.926;8.404;2024-01-06T09:27:51;12.43;;;7.73;;
16766;SDS011;8501;49.926;8.404;2024-01-06T09:30:18;10.67;;;7.40;;
16766;SDS011;8501;49.926;8.404;2024-01-06T09:32:43;12.90;;;7.07;;
16766;SDS011;8501;49.926;8.404;2024-01-06T09:35:09;11.93;;;7.03;;
16766;SDS011;8501;49.926;8.404;2024-01-06T09:37:35;13.33;;;8.03;;
16766;SDS011;8501;49.926;8.404;2024-01-06T09:40:00;13.33;;;7.90;;
16766;SDS011;8501;49.926;8.404;2024-01-06T09:42:26;13.10;;;7.17;;
16766;SDS011;8501;49.926;8.404;2024-01-06T09:44:51;14.03;;;7.40;;
16766;SDS011;8501;49.926;8.404;2024-01-06T09:47:17;12.10;;;7.93;;
16766;SDS011;8501;49.926;8.404;2024-01-06T09:49:46;13.93;;;8.33;;
16766;SDS011;8501;49.926;8.404;2024-01-06T09:52:14;15.20;;;8.97;;
16766;SDS011;8501;49.926;8.404;2024-01-06T09:54:46;13.67;;;8.57;;
16766;SDS011;8501;49.926;8.404;2024-01-06T09:57:16;13.90;;;8.50;;
16766;SDS011;8501;49.926;8.404;2024-01-06T09:59:43;12.83;;;8.23;;
16766;SDS011;8501;49.926;8.404;2024-01-06T10:02:09;14.10;;;9.13;;
16766;SDS011;8501;49.926;8.404;2024-01-06T10:04:39;14.30;;;8.90;;
16766;SDS011;8501;49.926;8.404;2024-01-06T10:07:05;16.03;;;8.80;;
16766;SDS011;8501;49.926;8.404;2024-01-06T10:09:30;17.37;;;9.97;;
16766;SDS011;8501;49.926;8.404;2024-01-06T10:11:56;19.13;;;9.60;;
16766;SDS011;8501;49.926;8.404;2024-01-06T10:14:23;13.50;;;9.03;;
16766;SDS011;8501;49.926;8.404;2024-01-06T10:16:49;17.20;;;9.10;;
16766;SDS011;8501;49.926;8.404;2024-01-06T10:19:16;14.43;;;9.13;;
16766;SDS011;8501;49.926;8.404;2024-01-06T10:21:41;15.03;;;8.57;;
16766;SDS011;8501;49.926;8.404;2024-01-06T10:24:07;15.60;;;8.57;;
16766;SDS011;8501;49.926;8.404;2024-01-06T10:26:34;15.33;;;8.57;;
16766;SDS011;8501;49.926;8.404;2024-01-06T10:29:00;14.47;;;8.37;;
16766;SDS011;8501;49.926;8.404;2024-01-06T10:31:25;17.70;;;8.33;;
16766;SDS011;8501;49.926;8.404;2024-01-06T10:33:51;14.50;;;8.70;;
16766;SDS011;8501;49.926;8.404;2024-01-06T10:36:17;14.43;;;8.57;;
16766;SDS011;8501;49.926;8.404;2024-01-06T10:38:44;16.93;;;9.03;;
16766;SDS011;8501;49.926;8.404;2024-01-06T10:41:09;13.03;;;8.37;;
16766;SDS011;8501;49.926;8.404;2024-01-06T10:43:37;13.00;;;8.63;;
16766;SDS011;8501;49.926;8.404;2024-01-06T10:46:06;16.47;;;8.37;;
16766;SDS011;8501;49.926;8.404;2024-01-06T10:48:35;16.60;;;8.50;;
16766;SDS011;8501;49.926;8.404;2024-01-06T10:51:10;13.73;;;8.67;;
16766;SDS011;8501;49.926;8.404;2024-01-06T10:53:37;14.83;;;9.00;;
16766;SDS011;8501;49.926;8.404;2024-01-06T10:56:04;17.30;;;9.13;;
16766;SDS011;8501;49.926;8.404;2024-01-06T10:58:32;15.60;;;9.30;;
16766;SDS011;8501;49.926;8.404;2024-01-06T11:01:02;16.47;;;9.00;;
16766;SDS011;8501;49.926;8.404;2024-01-06T11:03:29;15.40;;;9.17;;
16766;SDS011;8501;49.926;8.404;2024-01-06T11:05:55;16.83;;;9.73;;
16766;SDS011;8501;49.926;8.404;2024-01-06T11:08:22;17.03;;;9.97;;
16766;SDS011;8501;49.926;8.404;2024-01-06T11:10:49;16.50;;;9.43;;
16766;SDS011;8501;49.926;8.404;2024-01-06T11:13:15;15.40;;;9.60;;
16766;SDS011;8501;49.926;8.404;2024-01-06T11:18:35;16.47;;;9.60;;
16766;SDS011;8501;49.926;8.404;2024-01-06T11:24:04;14.70;;;9.60;;
16766;SDS011;8501;49.926;8.404;2024-01-06T11:26:42;20.13;;;9.90;;
16766;SDS011;8501;49.926;8.404;2024-01-06T11:29:09;22.23;;;9.60;;
16766;SDS011;8501;49.926;8.404;2024-01-06T11:31:35;17.47;;;10.00;;
16766;SDS011;8501;49.926;8.404;2024-01-06T11:34:17;16.67;;;9.87;;
16766;SDS011;8501;49.926;8.404;2024-01-06T11:36:44;20.13;;;10.23;;
16766;SDS011;8501;49.926;8.404;2024-01-06T11:42:03;17.27;;;9.60;;
16766;SDS011;8501;49.926;8.404;2024-01-06T11:44:29;18.83;;;9.83;;
16766;SDS011;8501;49.926;8.404;2024-01-06T11:46:58;17.53;;;10.27;;
16766;SDS011;8501;49.926;8.404;2024-01-06T11:49:26;16.10;;;9.77;;
16766;SDS011;8501;49.926;8.404;2024-01-06T11:51:53;15.03;;;9.23;;
16766;SDS011;8501;49.926;8.404;2024-01-06T11:54:18;19.43;;;9.77;;
16766;SDS011;8501;49.926;8.404;2024-01-06T11:56:46;15.87;;;9.23;;
16766;SDS011;8501;49.926;8.404;2024-01-06T11:59:11;16.23;;;9.57;;
16766;SDS011;8501;49.926;8.404;2024-01-06T12:01:37;19.57;;;10.37;;
16766;SDS011;8501;49.926;8.404;2024-01-06T12:04:04;16.27;;;10.37;;
16766;SDS011;8501;49.926;8.404;2024-01-06T12:06:30;14.83;;;8.60;;
16766;SDS011;8501;49.926;8.404;2024-01-06T12:09:05;13.37;;;8.27;;
16766;SDS011;8501;49.926;8.404;2024-01-06T12:11:32;17.70;;;9.40;;
16766;SDS011;8501;49.926;8.404;2024-01-06T12:13:57;14.77;;;8.80;;
16766;SDS011;8501;49.926;8.404;2024-01-06T12:16:23;11.90;;;7.67;;
16766;SDS011;8501;49.926;8.404;2024-01-06T12:18:52;10.93;;;6.67;;
16766;SDS011;8501;49.926;8.404;2024-01-06T12:21:20;18.80;;;11.33;;
16766;SDS011;8501;49.926;8.404;2024-01-06T12:23:47;42.50;;;22.53;;
16766;SDS011;8501;49.926;8.404;2024-01-06T12:26:12;29.13;;;15.17;;
16766;SDS011;8501;49.926;8.404;2024-01-06T12:28:38;24.77;;;14.23;;
16766;SDS011;8501;49.926;8.404;2024-01-06T12:31:04;19.23;;;11.27;;
16766;SDS011;8501;49.926;8.404;2024-01-06T12:33:33;17.27;;;10.10;;
16766;SDS011;8501;49.926;8.404;2024-01-06T12:36:02;28.67;;;17.57;;
16766;SDS011;8501;49.926;8.404;2024-01-06T12:38:29;52.00;;;30.83;;
16766;SDS011;8501;49.926;8.404;2024-01-06T12:40:55;31.30;;;19.13;;
16766;SDS011;8501;49.926;8.404;2024-01-06T12:43:21;37.73;;;25.77;;
16766;SDS011;8501;49.926;8.404;2024-01-06T12:45:46;29.13;;;21.10;;
16766;SDS011;8501;49.926;8.404;2024-01-06T12:48:12;19.37;;;14.70;;
16766;SDS011;8501;49.926;8.404;2024-01-06T12:50:37;15.43;;;9.70;;
16766;SDS011;8501;49.926;8.404;2024-01-06T12:53:03;13.83;;;8.80;;
16766;SDS011;8501;49.926;8.404;2024-01-06T12:55:29;10.23;;;7.20;;
16766;SDS011;8501;49.926;8.404;2024-01-06T12:57:54;13.60;;;7.20;;
16766;SDS011;8501;49.926;8.404;2024-01-06T13:00:20;10.00;;;6.80;;
16766;SDS011;8501;49.926;8.404;2024-01-06T13:02:45;33.13;;;23.50;;
16766;SDS011;8501;49.926;8.404;2024-01-06T13:05:11;30.97;;;21.33;;
16766;SDS011;8501;49.926;8.404;2024-01-06T13:07:38;20.37;;;14.60;;
16766;SDS011;8501;49.926;8.404;2024-01-06T13:10:04;33.10;;;26.83;;
16766;SDS011;8501;49.926;8.404;2024-01-06T13:12:31;28.97;;;23.57;;
16766;SDS011;8501;49.926;8.404;2024-01-06T13:14:56;25.13;;;21.77;;
16766;SDS011;8501;49.926;8.404;2024-01-06T13:17:23;21.30;;;17.00;;
16766;SDS011;8501;49.926;8.404;2024-01-06T13:19:49;12.97;;;9.60;;
16766;SDS011;8501;49.926;8.404;2024-01-06T13:22:14;10.70;;;7.40;;
16766;SDS011;8501;49.926;8.404;2024-01-06T13:24:43;9.37;;;5.87;;
16766;SDS011;8501;49.926;8.404;2024-01-06T13:27:08;11.23;;;6.27;;
16766;SDS011;8501;49.926;8.404;2024-01-06T13:29:34;11.23;;;6.87;;
16766;SDS011;8501;49.926;8.404;2024-01-06T13:31:59;9.30;;;6.57;;
16766;SDS011;8501;49.926;8.404;2024-01-06T13:34:25;11.27;;;6.57;;
16766;SDS011;8501;49.926;8.404;2024-01-06T13:36:51;11.30;;;6.93;;
16766;SDS011;8501;49.926;8.404;2024-01-06T13:39:16;22.70;;;14.30;;
16766;SDS011;8501;49.926;8.404;2024-01-06T13:41:48;19.80;;;13.67;;
16766;SDS011;8501;49.926;8.404;2024-01-06T13:44:15;18.27;;;13.47;;
16766;SDS011;8501;49.926;8.404;2024-01-06T13:46:40;12.87;;;9.27;;
16766;SDS011;8501;49.926;8.404;2024-01-06T13:49:09;10.60;;;7.20;;
16766;SDS011;8501;49.926;8.404;2024-01-06T13:51:41;10.97;;;6.70;;
16766;SDS011;8501;49.926;8.404;2024-01-06T13:54:07;9.63;;;6.70;;
16766;SDS011;8501;49.926;8.404;2024-01-06T13:56:34;10.50;;;6.47;;
16766;SDS011;8501;49.926;8.404;2024-01-06T13:59:00;9.57;;;6.50;;
16766;SDS011;8501;49.926;8.404;2024-01-06T14:01:25;11.33;;;6.60;;
16766;SDS011;8501;49.926;8.404;2024-01-06T14:03:51;15.97;;;10.00;;
16766;SDS011;8501;49.926;8.404;2024-01-06T14:06:22;31.60;;;21.40;;
16766;SDS011;8501;49.926;8.404;2024-01-06T14:08:54;29.27;;;19.50;;
16766;SDS011;8501;49.926;8.404;2024-01-06T14:11:24;16.27;;;10.80;;
16766;SDS011;8501;49.926;8.404;2024-01-06T14:13:50;12.87;;;8.00;;
16766;SDS011;8501;49.926;8.404;2024-01-06T14:16:16;11.00;;;7.07;;
16766;SDS011;8501;49.926;8.404;2024-01-06T14:18:42;10.73;;;7.20;;
16766;SDS011;8501;49.926;8.404;2024-01-06T14:21:11;33.23;;;19.80;;
16766;SDS011;8501;49.926;8.404;2024-01-06T14:23:39;26.03;;;14.90;;
16766;SDS011;8501;49.926;8.404;2024-01-06T14:26:05;17.07;;;10.10;;
16766;SDS011;8501;49.926;8.404;2024-01-06T14:28:31;16.17;;;9.90;;
16766;SDS011;8501;49.926;8.404;2024-01-06T14:30:56;13.00;;;8.00;;
16766;SDS011;8501;49.926;8.404;2024-01-06T14:33:22;11.57;;;7.43;;
16766;SDS011;8501;49.926;8.404;2024-01-06T14:35:47;58.53;;;35.93;;
16766;SDS011;8501;49.926;8.404;2024-01-06T14:38:13;24.63;;;14.97;;
16766;SDS011;8501;49.926;8.404;2024-01-06T14:40:39;16.00;;;10.00;;
16766;SDS011;8501;49.926;8.404;2024-01-06T14:43:04;21.67;;;14.17;;
16766;SDS011;8501;49.926;8.404;2024-01-06T14:45:30;26.77;;;15.33;;
16766;SDS011;8501;49.926;8.404;2024-01-06T14:47:57;28.50;;;17.43;;
16766;SDS011;8501;49.926;8.404;2024-01-06T14:50:22;32.63;;;18.37;;
16766;SDS011;8501;49.926;8.404;2024-01-06T14:52:48;26.30;;;13.90;;
16766;SDS011;8501;49.926;8.404;2024-01-06T14:55:14;20.37;;;12.40;;